createdAt,value
2017-11-25T00:00:22.217Z,92.30
2017-11-25T00:02:50.449Z,92.40
2017-11-25T00:05:17.911Z,92.40
2017-11-25T00:07:45.380Z,92.40
2017-11-25T00:10:12.845Z,92.50
2017-11-25T00:12:40.312Z,92.50
2017-11-25T00:15:07.775Z,92.50
2017-11-25T00:17:35.974Z,92.70
2017-11-25T00:20:03.410Z,92.70
2017-11-25T00:22:31.610Z,92.70
2017-11-25T00:24:59.060Z,92.60
2017-11-25T00:27:27.257Z,92.70
2017-11-25T00:29:54.699Z,92.70
2017-11-25T00:32:22.158Z,92.70
2017-11-25T00:34:49.615Z,92.70
2017-11-25T00:37:17.078Z,92.80
2017-11-25T00:39:44.541Z,93.00
2017-11-25T00:42:11.976Z,93.10
2017-11-25T00:44:40.191Z,93.10
2017-11-25T00:47:07.611Z,93.10
2017-11-25T00:49:35.078Z,93.10
2017-11-25T00:52:02.553Z,93.10
2017-11-25T00:54:30.015Z,93.10
2017-11-25T00:56:57.446Z,93.00
2017-11-25T00:59:24.923Z,93.10
2017-11-25T01:01:52.387Z,93.10
2017-11-25T01:04:19.830Z,92.90
2017-11-25T01:06:47.287Z,93.00
2017-11-25T01:09:14.741Z,93.10
2017-11-25T01:11:42.217Z,93.00
2017-11-25T01:14:09.700Z,92.90
2017-11-25T01:16:37.147Z,93.00
2017-11-25T01:19:04.597Z,93.10
2017-11-25T01:21:32.041Z,93.10
2017-11-25T01:23:59.513Z,93.30
2017-11-25T01:26:26.962Z,93.40
2017-11-25T01:28:54.420Z,93.20
2017-11-25T01:31:21.880Z,93.40
2017-11-25T01:33:49.403Z,93.30
2017-11-25T01:36:17.614Z,93.40
2017-11-25T01:38:45.091Z,93.40
2017-11-25T01:41:12.553Z,93.30
2017-11-25T01:43:40.003Z,93.50
2017-11-25T01:46:07.446Z,93.80
2017-11-25T01:48:34.932Z,93.90
2017-11-25T01:51:02.397Z,94.70
2017-11-25T01:53:29.853Z,94.20
2017-11-25T01:55:57.290Z,94.00
2017-11-25T01:58:24.768Z,94.30
2017-11-25T02:00:52.240Z,94.30
2017-11-25T02:03:19.686Z,94.10
2017-11-25T02:05:47.137Z,94.20
2017-11-25T02:08:15.443Z,94.40
2017-11-25T02:10:43.702Z,94.40
2017-11-25T02:13:11.162Z,94.40
2017-11-25T02:15:38.623Z,94.50
2017-11-25T02:18:06.083Z,94.80
2017-11-25T02:20:33.518Z,94.90
2017-11-25T02:23:00.979Z,94.70
2017-11-25T02:25:28.460Z,94.50
2017-11-25T02:27:56.723Z,94.10
2017-11-25T02:30:24.170Z,94.10
2017-11-25T02:32:52.476Z,94.60
2017-11-25T02:35:19.916Z,94.50
2017-11-25T02:37:48.267Z,94.60
2017-11-25T02:40:15.742Z,94.70
2017-11-25T02:42:43.185Z,94.60
2017-11-25T02:45:10.616Z,94.50
2017-11-25T02:47:38.045Z,94.10
2017-11-25T02:50:06.275Z,93.90
2017-11-25T02:52:33.732Z,93.90
2017-11-25T02:55:01.189Z,93.60
2017-11-25T02:57:28.825Z,93.50
2017-11-25T02:59:56.348Z,93.90
2017-11-25T03:02:24.566Z,94.10
2017-11-25T03:04:52.003Z,94.00
2017-11-25T03:07:19.462Z,93.90
2017-11-25T03:09:47.692Z,93.90
2017-11-25T03:12:15.151Z,93.90
2017-11-25T03:14:42.619Z,93.70
2017-11-25T03:17:10.119Z,93.90
2017-11-25T03:19:37.578Z,94.00
2017-11-25T03:22:05.038Z,93.90
2017-11-25T03:24:32.496Z,94.00
2017-11-25T03:26:59.958Z,93.90
2017-11-25T03:29:27.415Z,94.30
2017-11-25T03:31:54.902Z,93.90
2017-11-25T03:34:22.336Z,93.90
2017-11-25T03:36:49.774Z,93.60
2017-11-25T03:39:17.227Z,93.40
2017-11-25T03:41:44.721Z,93.60
2017-11-25T03:44:12.166Z,93.70
2017-11-25T03:46:39.632Z,93.60
2017-11-25T03:49:07.075Z,93.70
2017-11-25T03:51:34.535Z,93.90
2017-11-25T03:54:03.537Z,93.90
2017-11-25T03:56:31.401Z,94.00
2017-11-25T03:58:58.879Z,94.00
2017-11-25T04:01:26.330Z,94.00
2017-11-25T04:03:53.796Z,94.00
2017-11-25T04:06:21.249Z,94.00
2017-11-25T04:08:48.686Z,93.60
2017-11-25T04:11:16.664Z,93.90
2017-11-25T04:13:44.114Z,94.10
2017-11-25T04:16:11.574Z,94.00
2017-11-25T04:18:39.033Z,93.70
2017-11-25T04:21:06.489Z,94.30
2017-11-25T04:23:33.954Z,94.50
2017-11-25T04:26:01.405Z,93.70
2017-11-25T04:28:28.889Z,93.50
2017-11-25T04:30:56.327Z,93.30
2017-11-25T04:33:23.788Z,92.90
2017-11-25T04:35:51.247Z,93.00
2017-11-25T04:38:18.704Z,92.70
2017-11-25T04:40:46.162Z,92.90
2017-11-25T04:43:13.644Z,93.40
2017-11-25T04:45:41.109Z,93.20
2017-11-25T04:48:09.293Z,93.40
2017-11-25T04:50:36.739Z,93.40
2017-11-25T04:53:04.210Z,93.20
2017-11-25T04:55:31.658Z,93.30
2017-11-25T04:57:59.124Z,93.40
2017-11-25T05:00:26.562Z,93.20
2017-11-25T05:02:54.047Z,93.50
2017-11-25T05:05:21.497Z,93.10
2017-11-25T05:07:49.036Z,93.20
2017-11-25T05:10:16.521Z,93.00
2017-11-25T05:12:44.037Z,92.90
2017-11-25T05:15:11.513Z,93.00
2017-11-25T05:17:38.975Z,93.10
2017-11-25T05:20:06.453Z,93.00
2017-11-25T05:22:33.894Z,92.80
2017-11-25T05:25:01.338Z,92.90
2017-11-25T05:27:28.814Z,92.90
2017-11-25T05:29:57.024Z,92.60
2017-11-25T05:32:24.461Z,92.70
2017-11-25T05:34:52.700Z,92.60
2017-11-25T05:37:20.182Z,92.50
2017-11-25T05:39:47.618Z,92.50
2017-11-25T05:42:15.088Z,92.30
2017-11-25T05:44:42.539Z,92.40
2017-11-25T05:47:10.005Z,92.50
2017-11-25T05:49:37.475Z,92.90
2017-11-25T05:52:04.930Z,92.50
2017-11-25T05:54:32.374Z,93.60
2017-11-25T05:57:01.342Z,93.20
2017-11-25T05:59:28.825Z,93.20
2017-11-25T06:01:56.299Z,93.10
2017-11-25T06:04:23.789Z,93.00
2017-11-25T06:06:52.034Z,92.90
2017-11-25T06:09:19.486Z,92.90
2017-11-25T06:11:46.939Z,92.90
2017-11-25T06:14:14.357Z,93.20
2017-11-25T06:16:41.812Z,92.90
2017-11-25T06:19:09.253Z,92.70
2017-11-25T06:21:36.722Z,92.80
2017-11-25T06:24:04.195Z,92.80
2017-11-25T06:26:31.662Z,92.80
2017-11-25T06:28:59.103Z,92.80
2017-11-25T06:31:26.558Z,93.00
2017-11-25T06:33:53.998Z,92.90
2017-11-25T06:36:21.467Z,92.70
2017-11-25T06:38:48.922Z,92.50
2017-11-25T06:41:16.378Z,92.60
2017-11-25T06:43:43.846Z,92.70
2017-11-25T06:46:11.319Z,92.60
2017-11-25T06:48:38.761Z,92.40
2017-11-25T06:51:06.207Z,92.50
2017-11-25T06:53:33.781Z,92.50
2017-11-25T06:56:01.223Z,92.50
2017-11-25T06:58:28.732Z,92.40
2017-11-25T07:00:56.183Z,92.50
2017-11-25T07:03:23.629Z,92.50
2017-11-25T07:05:51.086Z,92.40
2017-11-25T07:08:18.528Z,92.50
2017-11-25T07:10:45.996Z,92.70
2017-11-25T07:13:13.448Z,92.70
2017-11-25T07:15:40.906Z,92.80
2017-11-25T07:18:08.366Z,92.70
2017-11-25T07:20:35.822Z,92.70
2017-11-25T07:23:03.287Z,92.10
2017-11-25T07:25:30.752Z,92.50
2017-11-25T07:27:58.202Z,92.50
2017-11-25T07:30:25.666Z,92.90
2017-11-25T07:32:53.130Z,92.80
2017-11-25T07:35:20.582Z,92.90
2017-11-25T07:37:48.055Z,92.70
2017-11-25T07:40:15.501Z,92.70
2017-11-25T07:42:42.942Z,92.80
2017-11-25T07:45:10.383Z,92.80
2017-11-25T07:47:37.823Z,93.30
2017-11-25T07:50:06.044Z,93.10
2017-11-25T07:52:33.504Z,93.10
2017-11-25T07:55:00.948Z,92.60
2017-11-25T07:57:28.409Z,92.80
2017-11-25T07:59:55.927Z,92.70
2017-11-25T08:02:23.358Z,92.70
2017-11-25T08:04:50.802Z,92.90
2017-11-25T08:07:18.274Z,92.50
2017-11-25T08:09:45.742Z,92.80
2017-11-25T08:12:13.204Z,92.80
2017-11-25T08:14:40.653Z,92.70
2017-11-25T08:17:08.109Z,92.90
2017-11-25T08:19:35.641Z,92.90
2017-11-25T08:22:04.022Z,93.10
2017-11-25T08:24:31.482Z,93.10
2017-11-25T08:26:58.950Z,92.80
2017-11-25T08:29:26.418Z,92.30
2017-11-25T08:31:53.875Z,92.80
2017-11-25T08:34:21.346Z,92.30
2017-11-25T08:36:49.564Z,92.40
2017-11-25T08:39:17.041Z,92.40
2017-11-25T08:41:44.481Z,92.40
2017-11-25T08:44:11.939Z,92.50
2017-11-25T08:46:39.440Z,92.00
2017-11-25T08:49:06.893Z,92.00
2017-11-25T08:51:34.348Z,91.80
2017-11-25T08:54:01.826Z,91.80
2017-11-25T08:56:29.279Z,91.70
2017-11-25T08:58:56.727Z,91.60
2017-11-25T09:01:24.184Z,91.80
2017-11-25T09:03:51.647Z,91.30
2017-11-25T09:06:19.103Z,90.80
2017-11-25T09:08:46.571Z,90.40
2017-11-25T09:11:14.043Z,90.20
2017-11-25T09:13:42.282Z,90.80
2017-11-25T09:16:09.739Z,90.80
2017-11-25T09:18:37.191Z,90.90
2017-11-25T09:21:04.669Z,91.00
2017-11-25T09:23:32.128Z,91.50
2017-11-25T09:25:59.569Z,91.40
2017-11-25T09:28:27.048Z,91.60
2017-11-25T09:30:54.522Z,91.40
2017-11-25T09:33:22.731Z,90.60
2017-11-25T09:35:51.111Z,90.60
2017-11-25T09:38:18.546Z,91.70
2017-11-25T09:40:45.993Z,91.40
2017-11-25T09:43:14.234Z,91.80
2017-11-25T09:45:41.663Z,91.80
2017-11-25T09:48:09.097Z,91.20
2017-11-25T09:50:36.527Z,91.00
2017-11-25T09:53:04.743Z,91.00
2017-11-25T09:55:32.182Z,91.00
2017-11-25T09:57:59.635Z,91.10
2017-11-25T10:00:27.093Z,90.50
2017-11-25T10:02:54.538Z,91.10
2017-11-25T10:05:22.731Z,92.80
2017-11-25T10:07:50.168Z,92.90
2017-11-25T10:10:18.357Z,93.20
2017-11-25T10:12:46.596Z,92.90
2017-11-25T10:15:14.045Z,93.40
2017-11-25T10:17:41.509Z,92.60
2017-11-25T10:20:08.936Z,92.10
2017-11-25T10:22:36.424Z,92.90
2017-11-25T10:25:04.705Z,92.50
2017-11-25T10:27:32.164Z,92.00
2017-11-25T10:29:59.622Z,91.70
2017-11-25T10:32:27.081Z,91.60
2017-11-25T10:34:54.555Z,91.30
2017-11-25T10:37:22.759Z,91.10
2017-11-25T10:39:50.193Z,91.10
2017-11-25T10:42:18.398Z,91.30
2017-11-25T10:44:45.860Z,91.30
2017-11-25T10:47:13.304Z,90.30
2017-11-25T10:49:40.751Z,91.20
2017-11-25T10:52:08.972Z,91.70
2017-11-25T10:54:36.415Z,91.70
2017-11-25T10:57:03.847Z,91.80
2017-11-25T10:59:31.302Z,91.60
2017-11-25T11:01:59.500Z,91.50
2017-11-25T11:04:26.946Z,91.50
2017-11-25T11:06:54.418Z,90.90
2017-11-25T11:09:21.883Z,91.50
2017-11-25T11:11:49.334Z,91.30
2017-11-25T11:14:16.782Z,91.40
2017-11-25T11:16:44.243Z,92.00
2017-11-25T11:19:11.702Z,91.90
2017-11-25T11:21:39.183Z,91.50
2017-11-25T11:24:06.617Z,91.00
2017-11-25T11:26:34.083Z,91.40
2017-11-25T11:29:01.543Z,91.10
2017-11-25T11:31:28.993Z,91.80
2017-11-25T11:33:56.442Z,91.70
2017-11-25T11:36:23.910Z,91.70
2017-11-25T11:38:51.391Z,91.70
2017-11-25T11:41:18.834Z,91.20
2017-11-25T11:43:46.296Z,90.80
2017-11-25T11:46:13.750Z,90.80
2017-11-25T11:48:41.215Z,90.70
2017-11-25T11:51:08.674Z,90.50
2017-11-25T11:53:36.127Z,90.60
2017-11-25T11:56:03.678Z,90.90
2017-11-25T11:58:31.126Z,90.40
2017-11-25T12:00:58.594Z,89.60
2017-11-25T12:03:26.046Z,89.30
2017-11-25T12:05:53.494Z,88.70
2017-11-25T12:08:20.923Z,88.40
2017-11-25T12:10:48.346Z,87.30
2017-11-25T12:13:16.663Z,86.90
2017-11-25T12:15:44.090Z,86.50
2017-11-25T12:18:11.546Z,86.50
2017-11-25T12:20:39.741Z,83.10
2017-11-25T12:23:07.176Z,82.90
2017-11-25T12:25:34.638Z,80.00
2017-11-25T12:28:02.087Z,79.00
2017-11-25T12:30:29.548Z,74.60
2017-11-25T12:32:57.006Z,76.00
2017-11-25T12:35:24.450Z,77.60
2017-11-25T12:37:51.887Z,78.80
2017-11-25T12:40:19.355Z,78.70
2017-11-25T12:42:46.839Z,77.00
2017-11-25T12:45:14.285Z,77.60
2017-11-25T12:47:41.730Z,78.80
2017-11-25T12:50:09.193Z,75.80
2017-11-25T12:52:36.659Z,77.10
2017-11-25T12:55:04.116Z,73.40
2017-11-25T12:57:31.561Z,71.40
2017-11-25T12:59:59.038Z,75.20
2017-11-25T13:02:26.498Z,72.70
2017-11-25T13:04:53.938Z,73.30
2017-11-25T13:07:21.421Z,74.60
2017-11-25T13:09:48.859Z,74.90
2017-11-25T13:12:17.244Z,72.30
2017-11-25T13:14:44.708Z,70.20
2017-11-25T13:17:12.170Z,71.50
2017-11-25T13:19:39.627Z,71.90
2017-11-25T13:22:07.110Z,72.50
2017-11-25T13:24:34.547Z,71.80
2017-11-25T13:27:02.009Z,73.10
2017-11-25T13:29:29.475Z,75.60
2017-11-25T13:31:56.905Z,78.20
2017-11-25T13:34:24.355Z,79.80
2017-11-25T13:36:52.438Z,78.50
2017-11-25T13:39:19.856Z,78.80
2017-11-25T13:41:47.295Z,78.40
2017-11-25T13:44:15.521Z,79.70
2017-11-25T13:46:43.022Z,79.70
2017-11-25T13:49:11.219Z,80.30
2017-11-25T13:51:38.650Z,80.30
2017-11-25T13:54:06.869Z,78.60
2017-11-25T13:56:34.302Z,78.40
2017-11-25T13:59:02.223Z,81.10
2017-11-25T14:01:29.642Z,79.70
2017-11-25T14:03:57.072Z,79.80
2017-11-25T14:06:25.267Z,78.90
2017-11-25T14:08:52.713Z,78.90
2017-11-25T14:11:20.151Z,79.30
2017-11-25T14:13:48.355Z,80.30
2017-11-25T14:16:15.801Z,80.30
2017-11-25T14:18:44.012Z,81.30
2017-11-25T14:21:11.444Z,81.20
2017-11-25T14:23:38.881Z,80.80
2017-11-25T14:26:07.079Z,83.10
2017-11-25T14:28:34.526Z,83.10
2017-11-25T14:31:01.983Z,82.50
2017-11-25T14:33:29.442Z,81.60
2017-11-25T14:35:56.897Z,82.10
2017-11-25T14:38:24.334Z,80.90
2017-11-25T14:40:52.579Z,81.20
2017-11-25T14:43:20.019Z,81.20
2017-11-25T14:45:47.467Z,83.00
2017-11-25T14:48:14.938Z,83.90
2017-11-25T14:50:42.381Z,82.00
2017-11-25T14:53:09.835Z,83.60
2017-11-25T14:55:37.269Z,85.90
2017-11-25T14:58:05.476Z,83.60
2017-11-25T15:00:32.939Z,83.60
2017-11-25T15:03:00.384Z,84.30
2017-11-25T15:05:27.842Z,84.50
2017-11-25T15:07:55.304Z,83.50
2017-11-25T15:10:22.754Z,83.40
2017-11-25T15:12:50.231Z,84.20
2017-11-25T15:15:17.691Z,84.80
2017-11-25T15:17:45.136Z,85.40
2017-11-25T15:20:12.607Z,84.40
2017-11-25T15:22:40.092Z,85.60
2017-11-25T15:25:07.533Z,84.80
2017-11-25T15:27:35.001Z,84.30
2017-11-25T15:30:02.446Z,86.20
2017-11-25T15:32:29.892Z,87.70
2017-11-25T15:34:57.355Z,87.80
2017-11-25T15:37:25.613Z,86.50
2017-11-25T15:39:53.097Z,86.40
2017-11-25T15:42:20.554Z,86.40
2017-11-25T15:44:48.012Z,87.10
2017-11-25T15:47:15.478Z,87.50
2017-11-25T15:49:42.934Z,87.00
2017-11-25T15:52:10.395Z,86.80
2017-11-25T15:54:37.863Z,87.10
2017-11-25T15:57:05.331Z,87.20
2017-11-25T15:59:32.781Z,88.30
2017-11-25T16:02:00.244Z,87.00
2017-11-25T16:04:27.691Z,87.30
2017-11-25T16:06:55.146Z,88.30
2017-11-25T16:09:22.607Z,89.00
2017-11-25T16:11:50.069Z,88.40
2017-11-25T16:14:17.525Z,90.40
2017-11-25T16:16:45.004Z,90.50
2017-11-25T16:19:13.232Z,90.70
2017-11-25T16:21:41.442Z,90.70
2017-11-25T16:24:08.895Z,91.10
2017-11-25T16:26:36.328Z,90.70
2017-11-25T16:29:04.305Z,89.70
2017-11-25T16:31:31.762Z,89.30
2017-11-25T16:33:59.270Z,88.80
2017-11-25T16:36:27.458Z,89.20
2017-11-25T16:38:54.963Z,89.20
2017-11-25T16:41:22.412Z,89.20
2017-11-25T16:43:49.879Z,88.70
2017-11-25T16:46:17.343Z,90.50
2017-11-25T16:48:44.797Z,90.80
2017-11-25T16:51:12.253Z,90.70
2017-11-25T16:53:39.773Z,90.50
2017-11-25T16:56:07.224Z,90.80
2017-11-25T16:58:35.463Z,91.40
2017-11-25T17:01:02.957Z,91.30
2017-11-25T17:03:30.394Z,91.60
2017-11-25T17:05:58.601Z,92.10
2017-11-25T17:08:26.045Z,92.10
2017-11-25T17:10:53.513Z,92.00
2017-11-25T17:13:20.971Z,92.30
2017-11-25T17:15:48.410Z,91.80
2017-11-25T17:18:15.891Z,91.60
2017-11-25T17:20:44.266Z,91.10
2017-11-25T17:23:11.751Z,91.40
2017-11-25T17:25:39.203Z,92.20
2017-11-25T17:28:06.646Z,92.00
2017-11-25T17:30:34.102Z,91.30
2017-11-25T17:33:01.551Z,91.30
2017-11-25T17:35:29.122Z,91.60
2017-11-25T17:37:57.358Z,92.10
2017-11-25T17:40:25.581Z,91.60
2017-11-25T17:42:53.050Z,91.60
2017-11-25T17:45:21.283Z,92.00
2017-11-25T17:47:49.490Z,90.90
2017-11-25T17:50:16.958Z,90.90
2017-11-25T17:52:44.374Z,91.00
2017-11-25T17:55:11.854Z,92.00
2017-11-25T17:57:39.516Z,91.60
2017-11-25T18:00:06.996Z,90.90
2017-11-25T18:02:34.414Z,90.30
2017-11-25T18:05:01.870Z,90.20
2017-11-25T18:07:29.326Z,90.00
2017-11-25T18:09:56.801Z,89.30
2017-11-25T18:12:24.269Z,88.50
2017-11-25T18:14:51.737Z,87.00
2017-11-25T18:17:19.182Z,88.50
2017-11-25T18:19:46.646Z,87.70
2017-11-25T18:22:14.106Z,87.10
2017-11-25T18:24:41.566Z,85.70
2017-11-25T18:27:08.990Z,84.90
2017-11-25T18:29:36.457Z,85.70
2017-11-25T18:32:04.691Z,82.10
2017-11-25T18:34:32.239Z,82.00
2017-11-25T18:36:59.678Z,83.90
2017-11-25T18:39:27.134Z,82.30
2017-11-25T18:41:54.594Z,82.00
2017-11-25T18:44:22.085Z,81.60
2017-11-25T18:46:49.524Z,83.20
2017-11-25T18:49:16.986Z,82.80
2017-11-25T18:51:45.199Z,82.30
2017-11-25T18:54:13.431Z,83.50
2017-11-25T18:56:40.886Z,83.50
2017-11-25T18:59:08.362Z,85.10
2017-11-25T19:01:35.818Z,86.70
2017-11-25T19:04:03.300Z,85.50
2017-11-25T19:06:30.757Z,85.50
2017-11-25T19:08:58.214Z,84.30
2017-11-25T19:11:26.406Z,81.60
2017-11-25T19:13:53.850Z,81.60
2017-11-25T19:16:21.294Z,82.70
2017-11-25T19:18:48.753Z,82.70
2017-11-25T19:21:16.196Z,84.80
2017-11-25T19:23:43.669Z,85.40
2017-11-25T19:26:11.132Z,85.00
2017-11-25T19:28:38.575Z,86.00
2017-11-25T19:31:06.974Z,85.80
2017-11-25T19:33:35.203Z,84.30
2017-11-25T19:36:02.628Z,84.30
2017-11-25T19:38:30.068Z,83.00
2017-11-25T19:40:58.301Z,83.40
2017-11-25T19:43:25.817Z,83.40
2017-11-25T19:45:54.003Z,85.40
2017-11-25T19:48:21.708Z,85.40
2017-11-25T19:50:49.118Z,86.20
2017-11-25T19:53:16.541Z,87.50
2017-11-25T19:55:44.761Z,88.90
2017-11-25T19:58:12.274Z,88.80
2017-11-25T20:00:40.512Z,89.10
2017-11-25T20:03:07.944Z,89.10
2017-11-25T20:05:35.402Z,88.20
2017-11-25T20:08:02.831Z,87.60
2017-11-25T20:10:31.096Z,86.90
2017-11-25T20:12:58.552Z,86.80
2017-11-25T20:15:26.032Z,86.40
2017-11-25T20:17:54.255Z,85.30
2017-11-25T20:20:21.698Z,85.30
2017-11-25T20:22:49.128Z,87.30
2017-11-25T20:25:16.608Z,88.60
2017-11-25T20:27:44.050Z,88.30
2017-11-25T20:30:11.507Z,88.00
2017-11-25T20:32:38.982Z,87.50
2017-11-25T20:35:06.435Z,87.10
2017-11-25T20:37:33.902Z,86.40
2017-11-25T20:40:01.373Z,85.60
2017-11-25T20:42:29.545Z,86.40
2017-11-25T20:44:57.001Z,87.00
2017-11-25T20:47:24.462Z,86.80
2017-11-25T20:49:51.902Z,86.60
2017-11-25T20:52:19.386Z,86.60
2017-11-25T20:54:46.846Z,87.10
2017-11-25T20:57:14.281Z,87.00
2017-11-25T20:59:41.727Z,87.00
2017-11-25T21:02:09.183Z,87.30
2017-11-25T21:04:36.658Z,88.20
2017-11-25T21:07:04.100Z,88.20
2017-11-25T21:09:31.567Z,87.70
2017-11-25T21:11:59.042Z,87.40
2017-11-25T21:14:26.498Z,87.20
2017-11-25T21:16:53.955Z,86.40
2017-11-25T21:19:21.414Z,85.80
2017-11-25T21:21:48.891Z,86.20
2017-11-25T21:24:16.408Z,87.30
2017-11-25T21:26:43.873Z,88.20
2017-11-25T21:29:11.347Z,88.70
2017-11-25T21:31:38.836Z,88.30
2017-11-25T21:34:06.274Z,89.30
2017-11-25T21:36:33.743Z,89.60
2017-11-25T21:39:01.207Z,88.50
2017-11-25T21:41:29.575Z,88.80
2017-11-25T21:43:57.030Z,88.20
2017-11-25T21:46:24.489Z,88.60
2017-11-25T21:48:51.948Z,89.00
2017-11-25T21:51:19.426Z,88.50
2017-11-25T21:53:46.894Z,88.40
2017-11-25T21:56:15.143Z,87.50
2017-11-25T21:58:43.337Z,88.10
2017-11-25T22:01:11.537Z,89.20
2017-11-25T22:03:38.970Z,89.20
2017-11-25T22:06:06.418Z,88.20
2017-11-25T22:08:34.666Z,89.90
2017-11-25T22:11:02.136Z,89.80
2017-11-25T22:13:30.480Z,90.60
2017-11-25T22:15:57.906Z,90.60
2017-11-25T22:18:26.139Z,90.50
2017-11-25T22:20:53.557Z,90.40
2017-11-25T22:23:20.991Z,90.00
2017-11-25T22:25:49.331Z,88.70
2017-11-25T22:28:16.789Z,88.70
2017-11-25T22:30:44.204Z,88.40
2017-11-25T22:33:11.722Z,88.90
2017-11-25T22:35:39.234Z,90.30
2017-11-25T22:38:06.683Z,90.20
2017-11-25T22:40:34.208Z,90.00
2017-11-25T22:43:01.655Z,90.10
2017-11-25T22:45:29.760Z,90.10
2017-11-25T22:47:57.958Z,90.00
2017-11-25T22:50:25.423Z,90.00
2017-11-25T22:52:52.872Z,90.30
2017-11-25T22:55:20.322Z,90.40
2017-11-25T22:57:47.766Z,91.00
2017-11-25T23:00:15.274Z,91.10
2017-11-25T23:02:42.706Z,90.90
2017-11-25T23:05:10.146Z,91.20
2017-11-25T23:07:38.118Z,91.10
2017-11-25T23:10:06.314Z,91.20
2017-11-25T23:12:33.764Z,91.20
2017-11-25T23:15:01.254Z,91.60
2017-11-25T23:17:28.678Z,91.90
2017-11-25T23:19:56.127Z,91.90
2017-11-25T23:22:23.562Z,92.60
2017-11-25T23:24:51.769Z,92.70
2017-11-25T23:27:19.227Z,92.70
2017-11-25T23:29:46.688Z,92.40
2017-11-25T23:32:14.582Z,92.50
2017-11-25T23:34:42.038Z,92.20
2017-11-25T23:37:09.491Z,92.00
2017-11-25T23:39:36.951Z,92.60
2017-11-25T23:42:04.416Z,93.80
2017-11-25T23:44:31.859Z,93.80
2017-11-25T23:46:59.311Z,94.30
2017-11-25T23:49:26.777Z,93.90
2017-11-25T23:51:54.245Z,93.50
2017-11-25T23:54:21.688Z,93.90
2017-11-25T23:56:49.130Z,93.40
2017-11-25T23:59:16.618Z,93.60
